Seminare 2019

Unser Seminarangebot für 2019

Hier finden Sie unser Seminarangebot für das Jahr 2019. Außerdem bieten wir auf Anfrage auch Inhouse Schulungen an. Sprechen Sie uns einfach an!

Weiter durch Bildung: Wählen Sie aus unseren Fortbildungen, Weiterbildungen und Kursen Ihr Wunschseminar aus und setzen Sie den Grundstein für Ihre berufliche Laufbahn.

Sie möchten immer "Up to date" sein - dann sollten Sie sich hier zu unserem Newsletter anmelden.

Updates für den Job im Leibniz Kolleg Hannover dem Fortbildungsinstitut für medizinische Fachberufe

Sie möchten das Fortbildungsprogramm lieber in der Druckversion gemütlich zu Hause studieren?

Kein Problem - hier können Sie das Kursheft kostenlos anfordern

Sie haben Fragen oder möchten persönlich beraten werden ?

Rufen Sie uns an unter der kostenfreien Rufnummer 0800 588 89 59

*Sämtliche Preise nach § 4 Nr. 21 a bb UStG ohne USt

"Hier geht es zum Anmeldeformular "

Sie können das o.g. Anmeldeformular downloaden und so Ihr Wunschseminar auch per Fax oder Brief buchen.

September 2019
MoDiMiDoFrSaSo
------1
2345678
9101112131415
16171819202122
23242526272829
30------
Oktober 2019
MoDiMiDoFrSaSo
-123456
78910111213
14151617181920
21222324252627
28293031---


buchbar  wenige Plätze  nicht mehr buchbar  beendet

Status Seminarthema Beginn Ende Gebühr   
Medical English - Foundation Course CEFL A2-B1 Modul 1 (1901-97) 07.01.2019 09.01.2019 525,00 € Details
Lachyoga in der Therapie - Ein Vortrag (1901-107) 09.01.2019 09.01.2019 15,00 € Details
Medical English - Foundation Course CEFL A2-B1 Modul 2 (1901-111) 21.01.2019 23.01.2019 525,00 € Details
Osteopathie-Ausbildung 1. Modul: Manufit-Methode nach Dr.med. Anton... 25.01.2019 27.01.2019 550,00 € * Details
Medical English - Foundation Course CEFL A2-B1 Modul 3 (1901-112) 28.01.2019 30.01.2019 525,00 € Details
NELKE-Methode® Basic Kurs - Coaching zur Lebensentwicklung für mehr... 01.02.2019 03.02.2019 515,00 €* Details
Manuelle Therapie in der Ergotherapie: Finger-Daumen-Handgelenk... 02.02.2019 03.02.2019 230,00 € * Details
Vortrag: "Herzliches Beileid" - Und was dann? (1902-35) 04.02.2019 04.02.2019 15,00 € Details
Würdiger Umgang mit Tod und Trauer (1902-36) 05.02.2019 05.02.2019 129,00 € Details
Trauer im Arbeitsteam (1902-37) 06.02.2019 06.02.2019 129,00 € Details
Alt & ver-rückt = dement? (1902-84) 07.02.2019 08.02.2019 325,00 €* Details
Bildungsurlaub Face reading moderne Psycho-Physiognomik (1902-53) 11.02.2019 13.02.2019 445,00 €* Details
Medical English - Foundation Course CEFL A2-B1 Modul 4 (1902-113) 11.02.2019 13.02.2019 525,00 € Details
Kompaktausbildung zum Burnout Berater (1902-41) 18.02.2019 24.02.2019 1395,00 € * Details
Zertifizierter Basiskurs Gewaltfreie Kommunikation (1902-11) 20.02.2019 22.02.2019 399,00 € * Details
Musik als Hilfe in der Begleitung Demenzerkrankter - Licht im Meer des... 25.02.2019 25.02.2019 129,00 € Details
Banfield’s Professional Medical English Professional Course Modul 1... 27.02.2019 01.03.2019 525,00 € Details
Faszination face reading - Ein Erlebnisvortrag (1902-54) 28.02.2019 28.02.2019 15,00 € Details
Liebeskummer lohnt nicht - Gesichter sagen mehr als 1000 Worte!... 02.03.2019 02.03.2019 129,00 €* Details
K-Taping für Logopäden (1903-72) 02.03.2019 03.03.2019 325,00 € Details
Progressive Muskelrelaxation Seminarleiter (1903-16) 11.03.2019 14.03.2019 425,00 € * Details
Vortrag NELKE-Methode® Basic Kurs - Coaching zur Lebensentwicklung... 12.03.2019 12.03.2019 0,00 € Details
K-Taping für Gynäkologen und Hebammen (1903-61) 15.03.2019 15.03.2019 165,00 € Details
K-Taping in der Ergotherapie (1903-62) 16.03.2019 17.03.2019 375,00 € Details
Autogenes Training Seminarleiter (1903-14) 18.03.2019 21.03.2019 425,00 € * Details
Therapiemöglichkeiten bei Schluckstörungen (1903-27) 19.03.2019 19.03.2019 160,00 € * Details
Demenz erkennen und behandeln (1903-28) 20.03.2019 20.03.2019 160,00 € * Details
Lebenswelt Bett (1903-42) 21.03.2019 21.03.2019 129,00 € Details
Therapie bei ALS, Amyotropher Lateralsklerose (1903-79) 21.03.2019 21.03.2019 160,00 € * Details
Palliative Betreuung von Menschen mit Demenz (1903-43) 22.03.2019 22.03.2019 129,00 € Details
Seminarleiter Stressbewältigung (1903-46) 25.03.2019 27.03.2019 399,00 € * Details
Banfield’s Professional Medical English Professional Course Modul 2... 25.03.2019 27.03.2019 525,00 € Details
Briefe als friedenstiftendes Mittel am Lebensende - Was ich dir noch... 29.03.2019 29.03.2019 129,00 €* Details
NELKE-Methode® Basic Kurs - Coaching zur Lebensentwicklung für mehr... 05.04.2019 07.04.2019 515,00 € Details
Banfield’s Professional Medical English Professional Course Modul 3... 08.04.2019 10.04.2019 525,00 € Details
Fachweiterbildung - Onkologische Kosmetikerin (1904-75) 12.04.2019 14.04.2019 955,00 € Details
Ausbildung zum/r Berater/in für ganzheitliche Augenmethoden (1904-03) 15.04.2019 17.04.2019 1690,00€ Details
Pathophysiognomik - ein Workshop Block 1-3 (1903-120) 15.04.2019 17.04.2019 575,00 € * Details
Face reading - Tagesworkshop (1904-56) 18.04.2019 18.04.2019 129,00 € Details
Osteopathie-Ausbildung 2. Modul: Manufit-Methode nach Dr.med. Anton... 26.04.2019 28.04.2019 550,00 € * Details
Komm!ASS® – Führen zur Kommunikation (1904-01) 26.04.2019 27.04.2019 260,00 €* Details
K-Taping Pädiatrie (1905-63) 04.05.2019 05.05.2019 375,00 € Details
Boxen und Ziele erreichen (1905-87) 07.05.2019 07.05.2019 450,00 € Details
Banfield’s Professional Medical English Professional Course Modul 4... 08.05.2019 10.05.2019 525,00 € Details
Erfahrungen sexualisierter Gewalt in der Lebensgeschichte alter Frauen... 09.05.2019 10.05.2019 325,00 €* Details
Seminarleiter Entspannungstrainer für Kinder & Jugendliche (1905-48) 13.05.2019 16.05.2019 425,00 €* Details
Weichteilkurs Cyriax I - Hand-Unterarm-Ellenbogen (1905-77) 18.05.2019 19.05.2019 230,00 € Details
Trampolinakademie Basic-Kurs (1903-80) 25.05.2019 26.05.2019 195,00 €* Details
Box-Event mit Christoph Teege (1905-100) 28.05.2019 28.05.2019 99,00 € Details
Faszination face reading - Ein Erlebnisvortrag (1906-55) 06.06.2019 06.06.2019 15,00 € Details
K-Taping für Gynäkologen und Hebammen (1906-64) 07.06.2019 07.06.2019 165,00 € Details
K-Taping Pro (1906-65) 08.06.2019 09.06.2019 375,00 € Details
SpeedReading - Lesegeschwindigkeit verdoppeln! (1906-89) 13.06.2019 14.06.2019 415,00 € Details
Gedächtnistraining und Merktechniken für Beruf und Alltag (1906-78) 16.06.2019 16.06.2019 129,00 € Details
Ataxie - neue Therapieformen (1906-23) 18.06.2019 19.06.2019 260,00 €* Details
Sturzprophylaxe (1906-24) 20.06.2019 20.06.2019 160,00 € * Details
Osteopathie-Ausbildung 1. Modul: Manufit-Methode nach Dr.med. Anton... 28.06.2019 30.06.2019 550,00 € Details
Manuelle Therapie in der Ergotherapie: Unterarm-Ellenbogen - Grundkurs... 29.06.2019 30.06.2019 230,00 € * Details
Onkologische-Fußpflege/PPE-Spezialist (1907-73) 05.07.2019 05.07.2019 375,00 €* Details
K-Taping in der Tanzmedizin (1907-103) 05.07.2019 05.07.2019 165,00 €* Details
K-Taping für Logopäden (1907-66) 06.07.2019 07.07.2019 325,00 € Details
Onkoflage® – Visagistin mit Zertifikat (1907-74) 06.07.2019 07.07.2019 715,00 €* Details
Lachyoga in der Therapie - Ein Workshop (1907-108) 07.08.2019 07.08.2019 129,00€ Details
Faszination face reading - Ein Erlebnisvortrag (1908-57) 08.08.2019 08.08.2019 15,00 € Details
NELKE-Methode® Basic Kurs - Coaching zur Lebensentwicklung für mehr... 09.08.2019 11.08.2019 515,00 €* Details
Zertifizierter Basiskurs Gewaltfreie Kommunikation (1908-12) 21.08.2019 23.08.2019 399,00 € * Details
K-Taping Pädiatrie (1908-67) 24.08.2019 25.08.2019 375,00 €* Details
Bildungsurlaub Face reading moderne Psycho-Physiognomik (1909-58) 04.09.2019 06.09.2019 445,00 €* Details
Lachyoga in der Therapie - Ein Vortrag (1909-109) 06.09.2019 06.09.2019 15,00 € Details
Das SZET-Konzept: Schlucken und Zungenruhelage Effizient Therapieren... 08.09.2019 09.09.2019 270,00 €* Details
Vortrag: "Herzliches Beileid" - Und was dann? (1909-38) 09.09.2019 09.09.2019 6,00 € Details
Geerbte Trauer - generationsübergreifende Traumata (1903-106) 09.09.2019 09.09.2019 129,00 € Details
Würdiger Umgang mit Tod und Trauer (1909-39) 10.09.2019 10.09.2019 129,00 € Details
Trauer im Arbeitsteam (1909-40) 11.09.2019 11.09.2019 129,00 € Details
Face reading - Tagesworkshop (1909-59) 12.09.2019 12.09.2019 129,00 € Details
Osteopathie-Ausbildung 2. Modul: Manufit-Methode nach Dr.med. Anton... 13.09.2019 15.09.2019 550,00 € * Details
Faszien in Theorie & Praxis - Ein Workshop (1909-51) 14.09.2019 15.09.2019 320,00 € Details
Komm!ASS® – Führen zur Kommunikation (1909-02) 20.09.2019 21.09.2019 260,00 €* Details Buchen
Pathophysiognomik - ein Workshop Block 1-3 (1909-123) 23.09.2019 25.09.2019 575,00 € * Details
Neurorehabilitation bei Multipler Sklerose (1909-25) 25.09.2019 26.09.2019 260,00 €* Details Buchen
Neurorehabilitation bei M. Parkinson (1909-26) 27.09.2019 27.09.2019 160,00 € * Details Buchen
Rückenschulleiter Lizenzverlängerung mit movedo® (1909-34) 27.09.2019 28.09.2019 210,00 € Details
Weichteilkurs Cyriax II - Schulter-Schultergürtel (1909-76) 28.09.2019 29.09.2019 230,00 € Details
Vortrag SpeedReading – schneller lesen, mehr behalten (1910-137) 01.10.2019 01.10.2019 15,00 € Details Buchen
Autogenes Training Seminarleiter (1910-15) 07.10.2019 10.10.2019 425,00 € * Details Buchen
NELKE-Methode®-Professional (1910-130) 08.10.2019 11.10.2019 685,00 € Details
Box-Event mit Christoph Teege (1910-134) 08.10.2019 08.10.2019 99,00 € Details Buchen
ONKO-Marketing (1910-131) 10.10.2019 10.10.2019 365,00 € Details
Onkologische-Fußpflege/PPE-Spezialist (1910-127) 11.10.2019 11.10.2019 375,00 €* Details Buchen
Manuelle Therapie in der Ergotherapie: Schulter u. Schultergürtel -... 12.10.2019 13.10.2019 230,00 € * Details
Onkoflage® – Visagistin mit Zertifikat (1910-128) 12.10.2019 13.10.2019 715,00 €* Details
Progressive Muskelrelaxation Seminarleiter (1910-17) 14.10.2019 17.10.2019 425,00 € * Details Buchen
Trampolinakademie Basic-Kurs (1907-91) 17.10.2019 17.10.2019 210,00 €* Details Buchen
Faszination face reading - Ein Erlebnisvortrag (1910-60) 17.10.2019 17.10.2019 15,00 € Details Buchen
Trampolinakademie TRAINER-Ausbildung (1910-81) 18.10.2019 20.10.2019 440,00 €* Details Buchen
Supervision zur Stressbewältigung und Burnoutprävention (1910-139) 20.10.2019 20.10.2019 275,00 €* Details Buchen
Kompaktausbildung zum Burnout Berater (1910-18) 21.10.2019 27.10.2019 1395,00 € * Details Buchen
Sucht und Suchthilfesysteme (1905-92) 27.10.2019 27.10.2019 129,00 € Details Buchen
Seminarleiter Stressbewältigung (1910-47) 28.10.2019 30.10.2019 399,00 € * Details Buchen
Osteopathie-Ausbildung 3. Modul: Manufit-Methode nach Dr.med. Anton... 01.11.2019 03.11.2019 550,00 € * Details Buchen
Seminarleiter Entspannungstrainer für Kinder & Jugendliche (1911-49) 01.11.2019 04.11.2019 425,00 € * Details Buchen
K-Taping Academy 12 energies Meridiantherapie (1911-68) 01.11.2019 03.11.2019 550,00 €* Details Buchen
Alzheimer – ein (un)abwendbares Schicksal? (1911-132) 05.11.2019 05.11.2019 129,00 €* Details Buchen
Lebenswelt Bett (1911-44) 07.11.2019 07.11.2019 129,00 €* Details Buchen
Musik als Hilfe in der Begleitung Demenzerkrankter - Licht im Meer des... 08.11.2019 08.11.2019 129,00 €* Details Buchen
Palliative Betreuung von Menschen mit Demenz (1911-45) 08.11.2019 08.11.2019 129,00 € Details Buchen
Nebenwirkungsmanagement für onkologisches Fachpersonal und... 09.11.2019 09.11.2019 199,00 € * Details Buchen
Lachyoga in der Therapie - Ein Workshop (1910-110) 13.11.2019 13.11.2019 129,00€ Details Buchen
Manufit Refresher Kurs - systemische Osteopathie nach Dr. med. Anton... 15.11.2019 17.11.2019 550,00 € Details Buchen
Logopädie 4.0 – Einsatz neuer Medien in der Therapie (1911-135) 16.11.2019 17.11.2019 275,00 €* Details Buchen
Lese-Rechtschreib-Störung (LRS) - Erkennen und behandeln (1911-136) 18.11.2019 19.11.2019 275,00 €* Details Buchen
SpeedReading - Lesegeschwindigkeit verdoppeln! (1911-90) 21.11.2019 22.11.2019 415,00 € Details Buchen
Face reading Cafe Lounge 1001 Gesichter - 1001 Geschichten (1911-140) 22.11.2019 22.11.2019 15,00 € * Details Buchen
K-Taping in der Tanzmedizin (1911-104) 22.11.2019 22.11.2019 165,00 €* Details Buchen
K-Taping für Logopäden (1911-69) 23.11.2019 24.11.2019 325,00 €* Details Buchen
Ausbildung zum/r Berater/in für ganzheitliche Augenmethoden (1911-04) 25.11.2019 27.11.2019 1690,00 €* Details Buchen
Ressourcen in der Gesprächsführung - Heilungsprozesse fördern... 27.11.2019 27.11.2019 129,00 € Details Buchen
Briefe als friedenstiftendes Mittel am Lebensende - Was ich dir noch... 29.11.2019 29.11.2019 129,00 €* Details Buchen
Fachweiterbildung - Onkologische Kosmetikerin (1911-126) 29.11.2019 01.12.2019 955,00 €* Details Buchen
Infoabend Activate Your Positivity (1909-138) 30.11.2019 30.11.2019 10,00 € Details Buchen
Zertifizierter Aufbaukurs Gewaltfreie Kommunikation (1912-13) 02.12.2019 04.12.2019 399,00 € * Details Buchen
K-Taping für Gynäkologen und Hebammen (1912-70) 06.12.2019 06.12.2019 165,00 €* Details Buchen
Faszien in Theorie & Praxis - Ein Workshop (1912-52) 07.12.2019 08.12.2019 320,00 € Details Buchen
K-Taping Pro (1912-71) 07.12.2019 08.12.2019 375,00 €* Details Buchen
Kompaktausbildung zum Entspannungstrainer/therapeuten (1906-50) 09.12.2019 15.12.2019 1395,00 € * Details Buchen
Häusliche Gewalt (sexualisierte, psychische, physische, strukturelle... 09.12.2019 10.12.2019 325,00 €* Details Buchen
Ausbildung - Orthopädisches Rückencoaching für Erwachsene (1912-82) 13.12.2019 16.12.2019 450,00 €* Details Buchen
Refresher - Orthopädischer Rückenschulleiter / Rückencoaching für... 13.12.2019 14.12.2019 230,00 €* Details Buchen


buchbar  wenige Plätze  nicht mehr buchbar  beendet

zurück

Immer auf dem Laufenden sein?
Newsletter anmelden

Hier geht's zu tollen Artikeln!
Leibniz Kolleg Blog

Vorträge und Workshops

Vortrag Speed Reading - Schneller lesen, mehr behalten
01.10.2019
Hier geht's zur Anmeldung
 
Box-Event mit Christoph Teege - Für Alle, die im Alltag vom Boxen profitieren möchten 
08.10.2019
Hier geht's zur Anmeldung
 
Faszination Face Reading - Ein Erlebnisvortrag über Psychophysiognomik 
17.10.2019
Hier geht's zur Anmeldung

 

Ausbildungen

Seminarleiter Autogenes Training nach Schultz
07. - 10.10.2019
Hier geht's zur Anmeldung
 
Onkologische-Fußpflege/PPE-Spezialist
11.10.2019
Hier geht's zur Anmeldung
 
Manuelle Therapie in der Ergotherapie: Schulter u. Schultergürtel - Grundkurs
12. - 13.10.2019
Hier geht's zur Anmeldung
 
PNT Trainer Ausbildung Trampolinakademie nach Placht
18. - 20.10.2019
Hier geht's zur Anmeldung
 
Seminarleiter Ausbildung Stressbewältigung
28. - 30.10.2019
Hier geht's zur Anmeldung

Weitere Veranstaltungstipps im Raum Hannover im Veranstaltungskalender auf eventfinder

Leibniz Kolleg Hannover
Schulungszentrum;
ein Unternehmen von
activera - Innovation in Helathcare
Innovation in Healthcare


activera® ist eine eingetragene Marke

Alle Kurse und Seminare hier im Seminarkalender

Seminarkalender